Christina — WCZ4663 — position and weather

sailwx.info

Track history (hours):
 
Tides and Currents Weather Stations Pressure Air Temp Water Temp Dewpoint Dewpoint Depression Visibility Wind Speed Wind Dir Waves Ship Positions

Christina

Owner: THEE, BRUCE W, RENO, NV. More information available from US FCC via Universal Licensing System and Coast Guard Vessel Documentation Center.

Last reported at 2017-Oct-16 10:25 UTC. Time now 2017-Dec-12 19:57 UTC.
Position N 38°22' W 123°26'.
Warning: this ship's position is 57 days out of date.

Length 14 m.

Type: Sailing vessel. MMSI: 366771080.

Date/timePositionNaut miles runAvg speedWind from/ knotsBaromVisibWave heightAir tempDewpointWater temp
2017-Oct-16 10:25N 38°22' W 123°26'3 6.6
2017-Oct-16 10:00N 38°20' W 123°24'4 7.1
2017-Oct-16 09:26N 38°17' W 123°20'4 7.3
2017-Oct-16 08:57N 38°14' W 123°17'45 6.3
2017-Oct-16 01:53N 37°49' W 122°30'1 3.4
2017-Oct-16 01:29N 37°49' W 122°28'2 4.2
2017-Oct-16 00:59N 37°50' W 122°26'2 4.6
2017-Oct-16 00:29N 37°50' W 122°23'2 4.0
2017-Oct-16 00:00N 37°51' W 122°20'1 2.6
2017-Oct-15 23:30N 37°50' W 122°19'0 0.1
2017-Oct-15 23:00N 37°50' W 122°19'0 0.1
2017-Oct-15 22:30N 37°50' W 122°19'0 0.3
2017-Oct-15 21:59N 37°50' W 122°19'0 0.0
2017-Oct-15 21:29N 37°50' W 122°19'0 0.0
2017-Oct-15 20:59N 37°50' W 122°19'0 0.1
2017-Oct-15 20:29N 37°50' W 122°19'0 0.1
2017-Oct-15 19:56N 37°50' W 122°19'0 0.0
2017-Oct-15 19:29N 37°50' W 122°19'0 0.0
2017-Oct-15 18:59N 37°50' W 122°19'0 0.0
2017-Oct-15 18:29N 37°50' W 122°19'0 0.0
2017-Oct-15 17:59N 37°50' W 122°19'0 0.0
2017-Oct-15 17:26N 37°50' W 122°19'0 0.0
2017-Oct-15 16:53N 37°50' W 122°19'0 0.0
2017-Oct-15 16:26N 37°50' W 122°19'0 0.0
2017-Oct-15 15:59N 37°50' W 122°19'0 0.0
2017-Oct-15 15:29N 37°50' W 122°19'0 0.0
2017-Oct-15 14:59N 37°50' W 122°19'0 0.0
2017-Oct-15 13:59N 37°50' W 122°19'0 0.0
2017-Oct-15 13:29N 37°50' W 122°19'0 0.0
2017-Oct-15 12:59N 37°50' W 122°19'0 0.0
2017-Oct-15 12:29N 37°50' W 122°19'0 0.0
2017-Oct-15 11:56N 37°50' W 122°19'0 0.1
2017-Oct-15 11:29N 37°50' W 122°19'0 0.1
2017-Oct-15 10:59N 37°50' W 122°19'0 0.0
2017-Oct-15 10:29N 37°50' W 122°19'0 0.0
2017-Oct-15 09:59N 37°50' W 122°19'0 0.1
2017-Oct-15 09:26N 37°50' W 122°19'0 0.1
2017-Oct-15 08:56N 37°50' W 122°19'0 0.0
2017-Oct-15 08:29N 37°50' W 122°19'0 0.1
2017-Oct-15 07:56N 37°50' W 122°19'0 0.1
2017-Oct-15 07:26N 37°50' W 122°19'0 0.0
2017-Oct-15 06:59N 37°50' W 122°19'0 0.0
2017-Oct-15 06:29N 37°50' W 122°19'0 0.0
2017-Oct-15 05:59N 37°50' W 122°19'0 0.0
2017-Oct-15 05:29N 37°50' W 122°19'0 0.0
2017-Oct-15 04:59N 37°50' W 122°19'0 0.0
2017-Oct-15 04:26N 37°50' W 122°19'0 0.0
2017-Oct-15 03:47N 37°50' W 122°19'0 0.2
2017-Oct-15 03:29N 37°50' W 122°19'0 0.1
2017-Oct-15 02:59N 37°50' W 122°19'0 0.0
2017-Oct-15 02:29N 37°50' W 122°19'0 0.0
2017-Oct-15 01:59N 37°50' W 122°19'0 0.1
2017-Oct-15 01:29N 37°50' W 122°19'0 0.1
2017-Oct-15 00:59N 37°50' W 122°19'0 0.0
2017-Oct-15 00:29N 37°50' W 122°19'0 0.0
2017-Oct-14 23:59N 37°50' W 122°19'0 0.0
2017-Oct-14 23:29N 37°50' W 122°19'0 0.0
2017-Oct-14 22:59N 37°50' W 122°19'0 0.0
2017-Oct-14 22:29N 37°50' W 122°19'0 0.0
2017-Oct-14 21:59N 37°50' W 122°19'0 0.0
2017-Oct-14 21:29N 37°50' W 122°19'0 0.0
2017-Oct-14 20:59N 37°50' W 122°19'0 0.1
2017-Oct-14 20:26N 37°50' W 122°19'0 0.1
2017-Oct-14 19:56N 37°50' W 122°19'0 0.0
2017-Oct-14 19:29N 37°50' W 122°19'0 0.0
2017-Oct-14 18:59N 37°50' W 122°19'0 0.0
2017-Oct-14 18:26N 37°50' W 122°19'0 0.0
2017-Oct-14 17:59N 37°50' W 122°19'0 0.0
2017-Oct-14 17:29N 37°50' W 122°19'0 0.0
2017-Oct-14 16:53N 37°50' W 122°19'0 0.0
2017-Oct-14 16:29N 37°50' W 122°19'  
Track history (hours):
 
Tides and Currents Weather Stations Pressure Air Temp Water Temp Dewpoint Dewpoint Depression Visibility Wind Speed Wind Dir Waves Ship Positions

Christina

Owner: THEE, BRUCE W, RENO, NV. More information available from US FCC via Universal Licensing System and Coast Guard Vessel Documentation Center.

Last reported at 2017-Oct-16 10:25 UTC. Time now 2017-Dec-12 19:57 UTC.
Position N 38°22' W 123°26'.
Warning: this ship's position is 57 days out of date.

Length 14 m.

Type: Sailing vessel. MMSI: 366771080.

Date/timePositionNaut miles runAvg speedWind from/ knotsBaromVisibWave heightAir tempDewpointWater temp
2017-Oct-16 10:25N 38°22' W 123°26'3 6.6
2017-Oct-16 10:00N 38°20' W 123°24'4 7.1
2017-Oct-16 09:26N 38°17' W 123°20'4 7.3
2017-Oct-16 08:57N 38°14' W 123°17'45 6.3
2017-Oct-16 01:53N 37°49' W 122°30'1 3.4
2017-Oct-16 01:29N 37°49' W 122°28'2 4.2
2017-Oct-16 00:59N 37°50' W 122°26'2 4.6
2017-Oct-16 00:29N 37°50' W 122°23'2 4.0
2017-Oct-16 00:00N 37°51' W 122°20'1 2.6
2017-Oct-15 23:30N 37°50' W 122°19'0 0.1
2017-Oct-15 23:00N 37°50' W 122°19'0 0.1
2017-Oct-15 22:30N 37°50' W 122°19'0 0.3
2017-Oct-15 21:59N 37°50' W 122°19'0 0.0
2017-Oct-15 21:29N 37°50' W 122°19'0 0.0
2017-Oct-15 20:59N 37°50' W 122°19'0 0.1
2017-Oct-15 20:29N 37°50' W 122°19'0 0.1
2017-Oct-15 19:56N 37°50' W 122°19'0 0.0
2017-Oct-15 19:29N 37°50' W 122°19'0 0.0
2017-Oct-15 18:59N 37°50' W 122°19'0 0.0
2017-Oct-15 18:29N 37°50' W 122°19'0 0.0
2017-Oct-15 17:59N 37°50' W 122°19'0 0.0
2017-Oct-15 17:26N 37°50' W 122°19'0 0.0
2017-Oct-15 16:53N 37°50' W 122°19'0 0.0
2017-Oct-15 16:26N 37°50' W 122°19'0 0.0
2017-Oct-15 15:59N 37°50' W 122°19'0 0.0
2017-Oct-15 15:29N 37°50' W 122°19'0 0.0
2017-Oct-15 14:59N 37°50' W 122°19'0 0.0
2017-Oct-15 13:59N 37°50' W 122°19'0 0.0
2017-Oct-15 13:29N 37°50' W 122°19'0 0.0
2017-Oct-15 12:59N 37°50' W 122°19'0 0.0
2017-Oct-15 12:29N 37°50' W 122°19'0 0.0
2017-Oct-15 11:56N 37°50' W 122°19'0 0.1
2017-Oct-15 11:29N 37°50' W 122°19'0 0.1
2017-Oct-15 10:59N 37°50' W 122°19'0 0.0
2017-Oct-15 10:29N 37°50' W 122°19'0 0.0
2017-Oct-15 09:59N 37°50' W 122°19'0 0.1
2017-Oct-15 09:26N 37°50' W 122°19'0 0.1
2017-Oct-15 08:56N 37°50' W 122°19'0 0.0
2017-Oct-15 08:29N 37°50' W 122°19'0 0.1
2017-Oct-15 07:56N 37°50' W 122°19'0 0.1
2017-Oct-15 07:26N 37°50' W 122°19'0 0.0
2017-Oct-15 06:59N 37°50' W 122°19'0 0.0
2017-Oct-15 06:29N 37°50' W 122°19'0 0.0
2017-Oct-15 05:59N 37°50' W 122°19'0 0.0
2017-Oct-15 05:29N 37°50' W 122°19'0 0.0
2017-Oct-15 04:59N 37°50' W 122°19'0 0.0
2017-Oct-15 04:26N 37°50' W 122°19'0 0.0
2017-Oct-15 03:47N 37°50' W 122°19'0 0.2
2017-Oct-15 03:29N 37°50' W 122°19'0 0.1
2017-Oct-15 02:59N 37°50' W 122°19'0 0.0
2017-Oct-15 02:29N 37°50' W 122°19'0 0.0
2017-Oct-15 01:59N 37°50' W 122°19'0 0.1
2017-Oct-15 01:29N 37°50' W 122°19'0 0.1
2017-Oct-15 00:59N 37°50' W 122°19'0 0.0
2017-Oct-15 00:29N 37°50' W 122°19'0 0.0
2017-Oct-14 23:59N 37°50' W 122°19'0 0.0
2017-Oct-14 23:29N 37°50' W 122°19'0 0.0
2017-Oct-14 22:59N 37°50' W 122°19'0 0.0
2017-Oct-14 22:29N 37°50' W 122°19'0 0.0
2017-Oct-14 21:59N 37°50' W 122°19'0 0.0
2017-Oct-14 21:29N 37°50' W 122°19'0 0.0
2017-Oct-14 20:59N 37°50' W 122°19'0 0.1
2017-Oct-14 20:26N 37°50' W 122°19'0 0.1
2017-Oct-14 19:56N 37°50' W 122°19'0 0.0
2017-Oct-14 19:29N 37°50' W 122°19'0 0.0
2017-Oct-14 18:59N 37°50' W 122°19'0 0.0
2017-Oct-14 18:26N 37°50' W 122°19'0 0.0
2017-Oct-14 17:59N 37°50' W 122°19'0 0.0
2017-Oct-14 17:29N 37°50' W 122°19'0 0.0
2017-Oct-14 16:53N 37°50' W 122°19'0 0.0
2017-Oct-14 16:29N 37°50' W 122°19'  

Dump ship's entire track history